Time;durP1;ratioP1;P1;durP2;ratioP2;P2;SDS_P1;SDS_P2;PMS_P1;PMS_P2;Temp;Humidity;BMP_temperature;BMP_pressure;BME280_temperature;BME280_humidity;BME280_pressure;Samples;Min_cycle;Max_cycle;Signal;HPM_P1;HPM_P2
2023/05/30 00:05:01;;;;;;;;;;;;;;;14.58;100.00;95744.50;10343066;28;2189;-70
2023/05/30 00:10:03;;;;;;;;;;;;;;;14.39;100.00;95739.13;10336678;28;1912;-69
2023/05/30 00:15:06;;;;;;;;;;;;;;;14.27;100.00;95745.00;10340234;28;2222;-70
2023/05/30 00:20:09;;;;;;;;;;;;;;;14.23;100.00;95740.50;10347506;28;2010;-69
2023/05/30 00:25:11;;;;;;;;;;;;;;;14.16;100.00;95750.88;10346909;28;2032;-70
2023/05/30 00:30:14;;;;;;;;;;;;;;;14.13;100.00;95746.88;10346663;28;4727;-69
2023/05/30 00:35:17;;;;;;;;;;;;;;;14.10;100.00;95743.97;10344951;28;1942;-69
2023/05/30 00:40:19;;;;;;;;;;;;;;;14.12;100.00;95747.16;10348207;28;2288;-70
2023/05/30 00:45:22;;;;;;;;;;;;;;;14.00;100.00;95739.53;10344979;28;2077;-69
2023/05/30 00:50:26;;;;;;;;;;;;;;;13.88;100.00;95737.31;10344121;28;1986;-70
2023/05/30 00:55:29;;;;;;;;;;;;;;;13.76;100.00;95745.84;10344891;28;1911;-69
2023/05/30 01:00:32;;;;;;;;;;;;;;;13.60;100.00;95757.19;10343015;28;2027;-69
2023/05/30 01:05:35;;;;;;;;;;;;;;;13.36;100.00;95768.03;10339942;28;1986;-70
2023/05/30 01:10:37;;;;;;;;;;;;;;;13.29;100.00;95767.59;10340266;28;1995;-70
2023/05/30 01:15:40;;;;;;;;;;;;;;;13.15;100.00;95764.78;10340338;28;2112;-69
2023/05/30 01:20:44;;;;;;;;;;;;;;;13.10;100.00;95754.06;10341854;28;2065;-70
2023/05/30 01:25:47;;;;;;;;;;;;;;;13.16;100.00;95764.50;10342572;28;1986;-69
2023/05/30 01:30:50;;;;;;;;;;;;;;;13.22;100.00;95754.47;10342087;28;4467;-69
2023/05/30 01:35:52;;;;;;;;;;;;;;;13.18;100.00;95756.13;10340816;28;1951;-69
2023/05/30 01:40:55;;;;;;;;;;;;;;;13.15;100.00;95772.88;10341232;28;3088;-68
2023/05/30 01:45:58;;;;;;;;;;;;;;;13.01;100.00;95769.28;10343793;28;1947;-69
2023/05/30 01:51:01;;;;;;;;;;;;;;;12.99;100.00;95767.69;10335626;28;1942;-69
2023/05/30 01:56:04;;;;;;;;;;;;;;;13.05;100.00;95773.03;10339677;28;1981;-69
2023/05/30 02:01:07;;;;;;;;;;;;;;;13.15;100.00;95773.69;10343094;28;1922;-69
2023/05/30 02:06:09;;;;;;;;;;;;;;;13.19;100.00;95766.63;10342475;28;2228;-70
2023/05/30 02:11:12;;;;;;;;;;;;;;;13.22;100.00;95770.66;10340451;28;2162;-70
2023/05/30 02:16:15;;;;;;;;;;;;;;;13.21;100.00;95774.47;10339123;28;1960;-69
2023/05/30 02:21:18;;;;;;;;;;;;;;;13.19;100.00;95774.72;10338820;28;1833;-69
2023/05/30 02:26:20;;;;;;;;;;;;;;;13.15;100.00;95767.50;10342728;28;1856;-69
2023/05/30 02:31:23;;;;;;;;;;;;;;;13.10;100.00;95765.66;10346153;28;2055;-69
2023/05/30 02:36:26;;;;;;;;;;;;;;;13.07;100.00;95777.03;10347177;28;1969;-69
2023/05/30 02:41:28;;;;;;;;;;;;;;;13.16;100.00;95777.19;10348449;28;1902;-69
2023/05/30 02:46:31;;;;;;;;;;;;;;;13.08;100.00;95769.75;10346697;28;1856;-69
2023/05/30 02:51:35;;;;;;;;;;;;;;;13.07;100.00;95778.94;10346302;28;1963;-69
2023/05/30 02:56:37;;;;;;;;;;;;;;;12.98;100.00;95774.19;10348154;28;1922;-69
2023/05/30 03:01:39;;;;;;;;;;;;;;;12.89;100.00;95775.91;10349784;28;1886;-69
2023/05/30 03:06:42;;;;;;;;;;;;;;;12.80;100.00;95791.13;10349162;28;1840;-69
2023/05/30 03:11:44;;;;;;;;;;;;;;;12.78;100.00;95785.19;10347866;28;1863;-68
2023/05/30 03:16:46;;;;;;;;;;;;;;;12.76;100.00;95781.97;10349037;28;1985;-69
2023/05/30 03:21:51;;;;;;;;;;;;;;;12.75;100.00;95785.78;10348053;28;2058;-68
2023/05/30 03:26:53;;;;;;;;;;;;;;;12.70;100.00;95783.13;10348311;28;4375;-69
2023/05/30 03:31:55;;;;;;;;;;;;;;;12.78;100.00;95781.69;10349928;28;2249;-69
2023/05/30 03:36:58;;;;;;;;;;;;;;;12.87;100.00;95788.06;10349181;28;1969;-69
2023/05/30 03:42:00;;;;;;;;;;;;;;;12.89;100.00;95786.69;10348950;28;1957;-69
2023/05/30 03:47:03;;;;;;;;;;;;;;;12.97;100.00;95788.75;10348144;28;1886;-68
2023/05/30 03:52:05;;;;;;;;;;;;;;;13.14;100.00;95788.28;10346572;28;1918;-69
2023/05/30 03:57:08;;;;;;;;;;;;;;;13.18;100.00;95792.00;10345292;28;1943;-69
2023/05/30 04:02:10;;;;;;;;;;;;;;;13.22;100.00;95800.34;10348364;28;1919;-69
2023/05/30 04:07:13;;;;;;;;;;;;;;;13.42;100.00;95797.41;10346713;28;1950;-69
2023/05/30 04:12:15;;;;;;;;;;;;;;;13.36;100.00;95795.03;10347176;28;2200;-68
2023/05/30 04:17:17;;;;;;;;;;;;;;;13.44;100.00;95797.13;10348496;28;1910;-69
2023/05/30 04:22:20;;;;;;;;;;;;;;;13.62;100.00;95798.22;10347647;28;2148;-68
2023/05/30 04:27:22;;;;;;;;;;;;;;;13.50;100.00;95806.75;10346336;28;4450;-69
2023/05/30 04:32:25;;;;;;;;;;;;;;;13.66;100.00;95812.72;10347081;28;1934;-70
2023/05/30 04:37:27;;;;;;;;;;;;;;;13.86;100.00;95819.72;10344465;28;2027;-69
2023/05/30 04:42:33;;;;;;;;;;;;;;;13.72;100.00;95831.28;10343314;28;1836;-69
2023/05/30 04:47:36;;;;;;;;;;;;;;;13.47;100.00;95827.03;10349315;28;1914;-69
2023/05/30 04:52:38;;;;;;;;;;;;;;;13.49;100.00;95827.56;10345388;28;1919;-69
2023/05/30 04:57:41;;;;;;;;;;;;;;;13.90;100.00;95836.97;10341508;28;1924;-68
2023/05/30 05:02:43;;;;;;;;;;;;;;;14.18;100.00;95822.47;10342912;28;1906;-69
2023/05/30 05:07:45;;;;;;;;;;;;;;;14.42;100.00;95826.97;10341060;28;1852;-68
2023/05/30 05:12:48;;;;;;;;;;;;;;;14.20;100.00;95833.00;10337083;28;1888;-69
2023/05/30 05:17:51;;;;;;;;;;;;;;;14.25;100.00;95839.16;10338599;28;1887;-68
2023/05/30 05:22:53;;;;;;;;;;;;;;;14.23;100.00;95846.72;10340074;28;2340;-69
2023/05/30 05:27:55;;;;;;;;;;;;;;;14.18;100.00;95844.09;10342026;28;1935;-69
2023/05/30 05:32:58;;;;;;;;;;;;;;;14.58;100.00;95853.50;10343288;28;1887;-69
2023/05/30 05:38:00;;;;;;;;;;;;;;;15.70;100.00;95850.53;10343254;28;1996;-69
2023/05/30 05:43:03;;;;;;;;;;;;;;;16.44;100.00;95836.66;10342721;28;1887;-69
2023/05/30 05:48:05;;;;;;;;;;;;;;;16.63;100.00;95845.41;10339131;28;1936;-69
2023/05/30 05:53:07;;;;;;;;;;;;;;;16.41;100.00;95848.94;10341184;28;1896;-70
2023/05/30 05:58:10;;;;;;;;;;;;;;;16.92;100.00;95844.13;10337957;28;1958;-69
2023/05/30 06:03:12;;;;;;;;;;;;;;;16.61;100.00;95853.06;10340427;28;2137;-70
2023/05/30 06:08:16;;;;;;;;;;;;;;;17.03;100.00;95848.19;10340135;28;1926;-69
2023/05/30 06:13:19;;;;;;;;;;;;;;;17.36;100.00;95855.97;10341979;28;1948;-69
2023/05/30 06:18:21;;;;;;;;;;;;;;;17.23;99.00;95863.13;10344068;28;2339;-69
2023/05/30 06:23:24;;;;;;;;;;;;;;;18.01;93.30;95869.63;10340203;28;2225;-69
2023/05/30 06:28:26;;;;;;;;;;;;;;;17.57;94.22;95865.19;10347969;28;4464;-70
2023/05/30 06:33:29;;;;;;;;;;;;;;;17.41;97.54;95874.88;10349032;28;1872;-69
2023/05/30 06:38:31;;;;;;;;;;;;;;;17.15;100.00;95875.56;10344492;28;1923;-70
2023/05/30 06:43:33;;;;;;;;;;;;;;;17.69;98.04;95876.25;10343393;28;1895;-70
2023/05/30 06:48:36;;;;;;;;;;;;;;;18.22;93.42;95872.50;10340763;28;1948;-69
2023/05/30 06:53:38;;;;;;;;;;;;;;;18.12;93.95;95878.25;10339588;28;1989;-71
2023/05/30 06:58:40;;;;;;;;;;;;;;;18.27;94.68;95879.72;10344955;28;1985;-68
2023/05/30 07:03:43;;;;;;;;;;;;;;;17.81;96.89;95889.22;10342858;28;1896;-69
2023/05/30 07:08:45;;;;;;;;;;;;;;;18.74;92.14;95886.09;10340455;28;2141;-69
2023/05/30 07:13:48;;;;;;;;;;;;;;;17.97;96.96;95892.31;10339426;28;2419;-70
2023/05/30 07:18:50;;;;;;;;;;;;;;;18.62;95.35;95875.03;10345059;28;1919;-70
2023/05/30 07:24:12;;;;;;;;;;;;;;;18.62;96.19;95880.47;10343851;28;1994;-70
2023/05/30 07:29:15;;;;;;;;;;;;;;;19.45;93.43;95870.00;10348826;28;4431;-69
2023/05/30 07:34:17;;;;;;;;;;;;;;;18.56;97.83;95879.03;10344138;28;2013;-70
2023/05/30 07:39:20;;;;;;;;;;;;;;;18.66;96.00;95872.47;10345814;28;2133;-71
2023/05/30 07:44:22;;;;;;;;;;;;;;;18.71;93.98;95873.16;10348813;28;2121;-70
2023/05/30 07:49:25;;;;;;;;;;;;;;;18.82;94.71;95874.38;10346603;28;2153;-71
2023/05/30 07:54:27;;;;;;;;;;;;;;;18.80;95.74;95871.19;10346539;28;1879;-70
2023/05/30 07:59:29;;;;;;;;;;;;;;;19.50;91.11;95871.75;10344244;28;1978;-69
2023/05/30 08:04:32;;;;;;;;;;;;;;;19.01;91.87;95875.94;10344961;28;1887;-70
2023/05/30 08:09:36;;;;;;;;;;;;;;;18.87;91.75;95876.94;10349137;28;1877;-69
2023/05/30 08:14:38;;;;;;;;;;;;;;;19.30;91.37;95877.94;10344658;28;2401;-69
2023/05/30 08:19:42;;;;;;;;;;;;;;;19.09;92.21;95872.44;10344095;28;1935;-70
2023/05/30 08:24:45;;;;;;;;;;;;;;;19.66;87.76;95869.31;10344727;28;1997;-70
2023/05/30 08:29:48;;;;;;;;;;;;;;;19.70;88.68;95870.25;10345320;28;4432;-69
2023/05/30 08:34:51;;;;;;;;;;;;;;;20.04;85.24;95874.72;10343208;28;1939;-70
2023/05/30 08:39:53;;;;;;;;;;;;;;;19.91;85.50;95882.00;10342557;28;1891;-70
2023/05/30 08:44:55;;;;;;;;;;;;;;;20.06;86.21;95866.19;10342051;28;1844;-69
2023/05/30 08:49:58;;;;;;;;;;;;;;;20.59;80.25;95870.91;10349969;28;1943;-69
2023/05/30 08:55:00;;;;;;;;;;;;;;;20.43;82.54;95873.44;10345214;28;1867;-70
2023/05/30 09:00:05;;;;;;;;;;;;;;;20.12;83.02;95882.03;10341206;28;1954;-69
2023/05/30 09:05:08;;;;;;;;;;;;;;;19.97;83.84;95879.88;10345114;28;1845;-68
2023/05/30 09:10:10;;;;;;;;;;;;;;;20.77;81.79;95879.75;10344826;28;1864;-69
2023/05/30 09:15:12;;;;;;;;;;;;;;;21.07;76.77;95882.34;10343824;28;1887;-69
2023/05/30 09:20:15;;;;;;;;;;;;;;;20.45;79.98;95873.94;10341315;28;1967;-69
2023/05/30 09:25:18;;;;;;;;;;;;;;;20.66;76.55;95879.38;10340501;28;1934;-69
2023/05/30 09:30:20;;;;;;;;;;;;;;;20.48;76.91;95878.72;10341782;28;1855;-70
2023/05/30 09:35:23;;;;;;;;;;;;;;;21.05;69.97;95883.47;10343104;28;2072;-69
2023/05/30 09:40:25;;;;;;;;;;;;;;;21.58;69.97;95881.78;10345630;28;1946;-69
2023/05/30 09:45:28;;;;;;;;;;;;;;;22.20;67.84;95889.94;10344148;28;1904;-70
2023/05/30 09:50:30;;;;;;;;;;;;;;;21.37;64.49;95878.31;10342333;28;2002;-70
2023/05/30 09:55:32;;;;;;;;;;;;;;;21.46;66.79;95873.56;10344098;28;2153;-70
2023/05/30 10:00:35;;;;;;;;;;;;;;;21.67;65.67;95883.59;10340473;28;1970;-71
2023/05/30 10:05:37;;;;;;;;;;;;;;;21.45;65.34;95877.44;10343673;28;2431;-70
2023/05/30 10:10:40;;;;;;;;;;;;;;;22.01;62.94;95885.88;10345013;28;2095;-70
2023/05/30 10:15:43;;;;;;;;;;;;;;;21.77;62.01;95878.47;10341596;28;1892;-70
2023/05/30 10:20:46;;;;;;;;;;;;;;;22.05;60.31;95875.81;10344340;28;1902;-70
2023/05/30 10:25:49;;;;;;;;;;;;;;;22.12;56.56;95881.53;10340040;28;2079;-70
2023/05/30 10:30:51;;;;;;;;;;;;;;;22.11;57.43;95860.78;10342554;28;4467;-70
2023/05/30 10:35:53;;;;;;;;;;;;;;;22.71;54.46;95860.13;10339311;28;2004;-69
2023/05/30 10:40:57;;;;;;;;;;;;;;;23.48;51.55;95852.41;10340922;28;2104;-69
2023/05/30 10:45:59;;;;;;;;;;;;;;;24.05;48.88;95853.78;10341650;28;1906;-70
2023/05/30 10:51:02;;;;;;;;;;;;;;;24.53;44.70;95846.19;10344395;28;1911;-69
2023/05/30 10:56:04;;;;;;;;;;;;;;;25.30;45.37;95846.09;10348892;28;1961;-68
2023/05/30 11:01:07;;;;;;;;;;;;;;;24.69;44.20;95830.41;10349807;28;2363;-68
2023/05/30 11:06:10;;;;;;;;;;;;;;;25.28;45.53;95829.16;10348662;28;1943;-68
2023/05/30 11:11:12;;;;;;;;;;;;;;;24.95;42.55;95832.47;10349026;28;1912;-69
2023/05/30 11:16:14;;;;;;;;;;;;;;;24.83;41.81;95834.59;10349826;28;1821;-69
2023/05/30 11:21:17;;;;;;;;;;;;;;;24.25;42.50;95825.19;10351239;28;1922;-70
2023/05/30 11:26:20;;;;;;;;;;;;;;;24.93;41.59;95823.00;10349106;28;2182;-69
2023/05/30 11:31:23;;;;;;;;;;;;;;;24.34;40.97;95818.72;10349203;28;1848;-69
2023/05/30 11:36:26;;;;;;;;;;;;;;;23.63;43.53;95828.88;10342716;28;1956;-70
2023/05/30 11:41:28;;;;;;;;;;;;;;;22.88;45.99;95826.97;10349114;28;1993;-69
2023/05/30 11:46:32;;;;;;;;;;;;;;;22.77;46.04;95831.31;10347918;28;1844;-70
2023/05/30 11:51:34;;;;;;;;;;;;;;;22.91;45.17;95826.28;10343072;28;1946;-70
2023/05/30 11:56:37;;;;;;;;;;;;;;;23.27;44.78;95821.69;10346354;28;1971;-70
2023/05/30 12:01:39;;;;;;;;;;;;;;;23.49;44.25;95818.34;10349566;28;2217;-70
2023/05/30 12:06:42;;;;;;;;;;;;;;;23.26;45.40;95809.94;10347115;28;1931;-70
2023/05/30 12:11:44;;;;;;;;;;;;;;;23.37;43.29;95810.19;10345750;28;1879;-69
2023/05/30 12:16:47;;;;;;;;;;;;;;;23.15;44.92;95809.66;10345374;28;1843;-69
2023/05/30 12:21:49;;;;;;;;;;;;;;;22.59;46.84;95809.75;10345188;28;1968;-69
2023/05/30 12:26:51;;;;;;;;;;;;;;;23.02;45.99;95810.88;10347101;28;4407;-69
2023/05/30 12:31:54;;;;;;;;;;;;;;;22.84;46.56;95809.59;10346782;28;1939;-70
2023/05/30 12:36:56;;;;;;;;;;;;;;;22.54;44.82;95815.47;10343189;28;1913;-69
2023/05/30 12:41:59;;;;;;;;;;;;;;;22.42;46.12;95812.78;10344637;28;1988;-70
2023/05/30 12:47:01;;;;;;;;;;;;;;;22.80;45.10;95815.00;10350113;28;1910;-69
2023/05/30 12:52:04;;;;;;;;;;;;;;;22.80;45.77;95803.22;10342703;28;2301;-70
2023/05/30 12:57:06;;;;;;;;;;;;;;;23.88;46.59;95818.47;10346854;28;1935;-70
2023/05/30 13:02:09;;;;;;;;;;;;;;;23.60;46.77;95800.19;10344275;28;2036;-69
2023/05/30 13:07:12;;;;;;;;;;;;;;;24.12;46.50;95807.25;10341944;28;1952;-68
2023/05/30 13:12:14;;;;;;;;;;;;;;;23.36;45.18;95805.88;10345811;28;2062;-70
2023/05/30 13:17:17;;;;;;;;;;;;;;;23.17;44.74;95810.13;10344568;28;1906;-70
2023/05/30 13:22:20;;;;;;;;;;;;;;;23.59;46.00;95801.31;10345161;28;2005;-70
2023/05/30 13:27:22;;;;;;;;;;;;;;;23.50;46.50;95806.19;10342912;28;1907;-70
2023/05/30 13:32:25;;;;;;;;;;;;;;;23.87;44.85;95797.66;10345359;28;1895;-70
2023/05/30 13:37:28;;;;;;;;;;;;;;;23.84;45.65;95806.59;10345469;28;1939;-70
2023/05/30 13:42:31;;;;;;;;;;;;;;;23.78;44.06;95802.56;10344177;28;1969;-69
2023/05/30 13:47:33;;;;;;;;;;;;;;;23.57;45.40;95802.81;10341417;28;2125;-70
2023/05/30 13:52:36;;;;;;;;;;;;;;;23.11;46.79;95814.25;10344569;28;2560;-70
2023/05/30 13:57:38;;;;;;;;;;;;;;;23.17;46.60;95810.13;10343592;28;1899;-70
2023/05/30 14:02:41;;;;;;;;;;;;;;;22.27;49.37;95806.09;10343255;28;1923;-71
2023/05/30 14:07:44;;;;;;;;;;;;;;;22.70;47.03;95801.00;10343148;28;1884;-69
2023/05/30 14:12:46;;;;;;;;;;;;;;;22.97;47.11;95802.13;10342108;28;1871;-68
2023/05/30 14:17:49;;;;;;;;;;;;;;;22.98;45.90;95799.03;10338245;28;1966;-70
2023/05/30 14:22:52;;;;;;;;;;;;;;;23.02;45.81;95799.91;10343466;28;1890;-70
2023/05/30 14:27:54;;;;;;;;;;;;;;;22.84;45.26;95804.94;10351577;28;4423;-71
2023/05/30 14:32:57;;;;;;;;;;;;;;;23.11;44.86;95806.03;10350712;28;1930;-70
2023/05/30 14:37:59;;;;;;;;;;;;;;;23.03;43.45;95801.53;10348724;28;2146;-70
2023/05/30 14:43:02;;;;;;;;;;;;;;;22.86;43.77;95793.59;10353217;28;1907;-70
2023/05/30 14:48:05;;;;;;;;;;;;;;;23.39;41.85;95802.41;10350516;28;1910;-70
2023/05/30 14:53:07;;;;;;;;;;;;;;;22.87;41.34;95793.28;10346452;28;1959;-69
2023/05/30 14:58:11;;;;;;;;;;;;;;;23.13;41.73;95784.53;10350391;28;1923;-70
2023/05/30 15:03:13;;;;;;;;;;;;;;;23.66;38.87;95789.72;10349489;28;1928;-70
2023/05/30 15:08:15;;;;;;;;;;;;;;;23.54;40.25;95787.88;10350848;28;1931;-69
2023/05/30 15:13:18;;;;;;;;;;;;;;;22.79;46.62;95790.69;10349248;28;1963;-71
2023/05/30 15:18:20;;;;;;;;;;;;;;;22.61;49.63;95798.41;10348372;28;1905;-70
2023/05/30 15:23:23;;;;;;;;;;;;;;;22.81;47.36;95804.81;10345922;28;1853;-71
2023/05/30 15:28:25;;;;;;;;;;;;;;;22.48;47.22;95803.16;10348811;28;4494;-70
2023/05/30 15:33:27;;;;;;;;;;;;;;;22.89;47.61;95792.91;10351163;28;1907;-71
2023/05/30 15:38:30;;;;;;;;;;;;;;;22.47;48.03;95807.06;10346437;28;1948;-71
2023/05/30 15:43:32;;;;;;;;;;;;;;;22.24;51.25;95803.25;10343695;28;2365;-71
2023/05/30 15:48:34;;;;;;;;;;;;;;;22.83;53.75;95791.56;10342351;28;2082;-70
2023/05/30 15:53:37;;;;;;;;;;;;;;;22.38;55.67;95798.16;10348003;28;1883;-70
2023/05/30 15:58:39;;;;;;;;;;;;;;;22.09;58.72;95800.13;10349360;28;1918;-70
2023/05/30 16:03:42;;;;;;;;;;;;;;;21.88;60.83;95788.47;10343974;28;2008;-69
2023/05/30 16:08:44;;;;;;;;;;;;;;;21.84;63.45;95790.34;10340850;28;1897;-69
2023/05/30 16:13:47;;;;;;;;;;;;;;;21.45;61.96;95789.94;10343761;28;1918;-70
2023/05/30 16:18:49;;;;;;;;;;;;;;;21.33;62.25;95787.19;10345466;28;1918;-71
2023/05/30 16:23:51;;;;;;;;;;;;;;;21.27;61.03;95792.06;10345417;28;1896;-71
2023/05/30 16:28:54;;;;;;;;;;;;;;;21.16;63.06;95795.59;10345934;28;4580;-70
2023/05/30 16:33:56;;;;;;;;;;;;;;;20.93;61.26;95801.50;10345307;28;1889;-70
2023/05/30 16:38:58;;;;;;;;;;;;;;;21.01;62.03;95786.91;10345292;28;2539;-69
2023/05/30 16:44:02;;;;;;;;;;;;;;;20.81;64.40;95787.81;10340418;28;1909;-70
2023/05/30 16:49:04;;;;;;;;;;;;;;;20.99;65.73;95799.31;10339902;28;1944;-69
2023/05/30 16:54:06;;;;;;;;;;;;;;;20.77;65.35;95786.88;10340603;28;1863;-69
2023/05/30 16:59:09;;;;;;;;;;;;;;;20.64;64.65;95787.97;10341318;28;1981;-70
2023/05/30 17:04:11;;;;;;;;;;;;;;;20.50;65.08;95793.75;10340049;28;1940;-71
2023/05/30 17:09:14;;;;;;;;;;;;;;;20.52;66.89;95796.94;10344530;28;1936;-71
2023/05/30 17:14:16;;;;;;;;;;;;;;;20.39;71.35;95798.00;10336444;28;1887;-70
2023/05/30 17:19:19;;;;;;;;;;;;;;;20.07;67.99;95794.91;10339845;28;1982;-71
2023/05/30 17:24:31;;;;;;;;;;;;;;;20.06;68.62;95800.69;10341048;28;1887;-70
2023/05/30 17:29:33;;;;;;;;;;;;;;;20.04;71.23;95808.41;10342051;28;4471;-69
2023/05/30 17:34:36;;;;;;;;;;;;;;;19.93;71.25;95814.28;10340262;28;1972;-71
2023/05/30 17:39:39;;;;;;;;;;;;;;;19.89;69.22;95824.25;10340794;28;2063;-69
2023/05/30 17:44:41;;;;;;;;;;;;;;;19.71;66.83;95822.75;10335916;28;1924;-70
2023/05/30 17:49:45;;;;;;;;;;;;;;;19.53;64.66;95826.69;10336767;28;1868;-70
2023/05/30 17:54:48;;;;;;;;;;;;;;;19.52;65.46;95836.00;10339886;28;2104;-68
2023/05/30 17:59:50;;;;;;;;;;;;;;;19.32;67.16;95854.69;10336949;28;1957;-71
2023/05/30 18:04:52;;;;;;;;;;;;;;;19.20;70.48;95849.13;10335087;28;1828;-69
2023/05/30 18:09:55;;;;;;;;;;;;;;;19.07;71.79;95852.84;10329210;28;1922;-73
2023/05/30 18:14:58;;;;;;;;;;;;;;;18.96;75.32;95851.59;10331306;28;1907;-73
2023/05/30 18:20:04;;;;;;;;;;;;;;;18.80;78.82;95860.31;10340888;28;1956;-72
2023/05/30 18:25:07;;;;;;;;;;;;;;;18.70;82.13;95855.19;10338636;28;2102;-69
2023/05/30 18:30:09;;;;;;;;;;;;;;;18.53;82.51;95866.88;10339101;28;4494;-71
2023/05/30 18:35:11;;;;;;;;;;;;;;;18.37;82.83;95872.00;10339895;28;1895;-70
2023/05/30 18:40:15;;;;;;;;;;;;;;;18.23;86.35;95873.31;10340611;28;1910;-71
2023/05/30 18:45:18;;;;;;;;;;;;;;;18.05;86.39;95877.91;10337621;28;1978;-70
2023/05/30 18:50:20;;;;;;;;;;;;;;;17.93;86.00;95883.19;10336007;28;1875;-71
2023/05/30 18:55:23;;;;;;;;;;;;;;;17.78;86.92;95882.53;10338233;28;1864;-72
2023/05/30 19:00:28;;;;;;;;;;;;;;;17.64;88.47;95889.97;10346348;28;2046;-70
2023/05/30 19:05:33;;;;;;;;;;;;;;;17.54;88.82;95890.25;10331036;28;1899;-71
2023/05/30 19:10:36;;;;;;;;;;;;;;;17.40;91.07;95895.81;10336844;28;1942;-71
2023/05/30 19:15:39;;;;;;;;;;;;;;;17.28;93.33;95909.97;10338557;28;1985;-71
2023/05/30 19:20:41;;;;;;;;;;;;;;;17.14;96.47;95912.00;10345962;28;1927;-71
2023/05/30 19:25:44;;;;;;;;;;;;;;;17.09;98.01;95914.84;10336136;28;2966;-69
2023/05/30 19:30:46;;;;;;;;;;;;;;;16.98;100.00;95927.06;10341644;28;4462;-70
2023/05/30 19:35:49;;;;;;;;;;;;;;;16.90;100.00;95925.91;10340065;28;2051;-72
2023/05/30 19:40:52;;;;;;;;;;;;;;;16.83;100.00;95932.88;10344280;28;1955;-70
2023/05/30 19:45:55;;;;;;;;;;;;;;;16.78;100.00;95927.56;10342221;28;1904;-70
2023/05/30 19:50:57;;;;;;;;;;;;;;;16.72;100.00;95929.59;10339237;28;1943;-69
2023/05/30 19:56:00;;;;;;;;;;;;;;;16.70;100.00;95938.06;10340473;28;1887;-70
2023/05/30 20:01:02;;;;;;;;;;;;;;;16.61;100.00;95939.09;10341023;28;1914;-68
2023/05/30 20:06:06;;;;;;;;;;;;;;;16.49;100.00;95936.94;10341819;28;1930;-69
2023/05/30 20:11:08;;;;;;;;;;;;;;;16.37;100.00;95939.38;10341179;28;2188;-70
2023/05/30 20:16:11;;;;;;;;;;;;;;;16.34;100.00;95945.41;10344543;28;1897;-70
2023/05/30 20:21:14;;;;;;;;;;;;;;;16.31;100.00;95946.03;10338684;28;1920;-71
2023/05/30 20:26:17;;;;;;;;;;;;;;;16.25;100.00;95947.25;10340094;28;2476;-71
2023/05/30 20:31:19;;;;;;;;;;;;;;;16.17;100.00;95952.28;10340049;28;1852;-70
2023/05/30 20:36:21;;;;;;;;;;;;;;;16.15;100.00;95948.25;10338748;28;1896;-70
2023/05/30 20:41:25;;;;;;;;;;;;;;;16.07;100.00;95944.34;10341399;28;1919;-71
2023/05/30 20:46:28;;;;;;;;;;;;;;;15.98;100.00;95948.91;10337213;28;2070;-71
2023/05/30 20:51:31;;;;;;;;;;;;;;;16.04;100.00;95958.53;10341432;28;1924;-70
2023/05/30 20:56:34;;;;;;;;;;;;;;;15.93;100.00;95952.50;10341999;28;1971;-70
2023/05/30 21:01:40;;;;;;;;;;;;;;;15.86;100.00;95956.75;10338149;28;2057;-70
2023/05/30 21:06:42;;;;;;;;;;;;;;;15.78;100.00;95957.47;10338811;28;1946;-69
2023/05/30 21:11:44;;;;;;;;;;;;;;;15.83;100.00;95958.13;10339873;28;1851;-70
2023/05/30 21:16:47;;;;;;;;;;;;;;;15.80;100.00;95955.25;10342987;28;2018;-70
2023/05/30 21:21:50;;;;;;;;;;;;;;;15.72;100.00;95956.75;10344878;28;2327;-70
2023/05/30 21:26:53;;;;;;;;;;;;;;;15.59;100.00;95963.75;10342294;28;4360;-69
2023/05/30 21:31:56;;;;;;;;;;;;;;;15.47;100.00;95966.16;10339653;28;2180;-70
2023/05/30 21:36:59;;;;;;;;;;;;;;;15.42;100.00;95966.25;10340603;28;1911;-70
2023/05/30 21:42:01;;;;;;;;;;;;;;;15.34;100.00;95972.34;10340891;28;2133;-69
2023/05/30 21:47:04;;;;;;;;;;;;;;;15.29;100.00;95970.53;10336630;28;1956;-70
2023/05/30 21:52:06;;;;;;;;;;;;;;;15.31;100.00;95971.03;10341835;28;1882;-69
2023/05/30 21:57:09;;;;;;;;;;;;;;;15.35;100.00;95963.13;10340964;28;1906;-70
2023/05/30 22:02:11;;;;;;;;;;;;;;;15.26;100.00;95959.47;10344343;28;2102;-69
2023/05/30 22:07:14;;;;;;;;;;;;;;;15.23;100.00;95960.09;10349252;28;2050;-69
2023/05/30 22:12:16;;;;;;;;;;;;;;;15.07;100.00;95965.75;10342845;28;1984;-70
2023/05/30 22:17:19;;;;;;;;;;;;;;;14.93;100.00;95961.41;10346704;28;2247;-69
2023/05/30 22:22:22;;;;;;;;;;;;;;;14.77;100.00;95955.47;10341784;28;1983;-69
2023/05/30 22:27:25;;;;;;;;;;;;;;;14.71;100.00;95965.56;10341803;28;4627;-69
2023/05/30 22:32:28;;;;;;;;;;;;;;;14.63;100.00;95960.00;10341899;28;1918;-69
2023/05/30 22:37:30;;;;;;;;;;;;;;;14.56;100.00;95958.47;10345509;28;1968;-69
2023/05/30 22:42:33;;;;;;;;;;;;;;;14.46;100.00;95961.34;10338034;28;1944;-69
2023/05/30 22:47:36;;;;;;;;;;;;;;;14.39;100.00;95952.78;10347785;28;1844;-69
2023/05/30 22:52:39;;;;;;;;;;;;;;;14.30;100.00;95949.09;10348948;28;1982;-70
2023/05/30 22:57:42;;;;;;;;;;;;;;;14.25;100.00;95946.47;10352780;28;2065;-69
2023/05/30 23:02:44;;;;;;;;;;;;;;;14.20;100.00;95944.66;10349168;28;1930;-68
2023/05/30 23:07:48;;;;;;;;;;;;;;;14.13;100.00;95943.41;10348568;28;1890;-70
2023/05/30 23:12:50;;;;;;;;;;;;;;;14.09;100.00;95943.19;10347205;28;1941;-70
2023/05/30 23:17:53;;;;;;;;;;;;;;;14.04;100.00;95933.25;10344923;28;1945;-70
2023/05/30 23:22:56;;;;;;;;;;;;;;;14.00;100.00;95934.94;10344994;28;1976;-70
2023/05/30 23:27:59;;;;;;;;;;;;;;;13.94;100.00;95943.41;10343862;28;4345;-70
2023/05/30 23:33:01;;;;;;;;;;;;;;;13.92;100.00;95937.47;10362740;28;1904;-70
2023/05/30 23:38:04;;;;;;;;;;;;;;;13.85;100.00;95931.63;10344704;28;1895;-69
2023/05/30 23:43:06;;;;;;;;;;;;;;;13.81;100.00;95936.81;10349575;28;1985;-69
2023/05/30 23:48:08;;;;;;;;;;;;;;;13.72;100.00;95936.63;10350695;28;1914;-69
2023/05/30 23:53:11;;;;;;;;;;;;;;;13.63;100.00;95932.19;10348423;28;1935;-70
2023/05/30 23:58:13;;;;;;;;;;;;;;;13.57;100.00;95928.72;10348367;28;1894;-70
